Time;durP1;ratioP1;P1;durP2;ratioP2;P2;SDS_P1;SDS_P2;PMS_P1;PMS_P2;Temp;Humidity;BMP_temperature;BMP_pressure;BME280_temperature;BME280_humidity;BME280_pressure;Samples;Min_cycle;Max_cycle;Signal;HPM_P1;HPM_P2
2022/05/12 00:00:18;;;;;;;6.80;3.40;;;;;;;14.85;100.00;100554.97;702561;28;1193;-44
2022/05/12 00:00:38;;;;;;;7.22;3.13;;;;;;;14.78;100.00;100553.38;701502;28;1547;-44
2022/05/12 00:00:59;;;;;;;7.50;3.08;;;;;;;14.76;100.00;100552.53;701073;28;1090;-45
2022/05/12 00:01:19;;;;;;;6.73;3.13;;;;;;;14.77;100.00;100555.16;701599;28;1296;-46
2022/05/12 00:01:40;;;;;;;6.22;3.00;;;;;;;14.81;100.00;100561.19;701383;27;4271;-44
2022/05/12 00:02:01;;;;;;;7.03;3.40;;;;;;;14.81;100.00;100554.19;701482;28;1123;-44
2022/05/12 00:02:22;;;;;;;6.38;3.42;;;;;;;14.93;100.00;100553.00;700869;28;1260;-45
2022/05/12 00:02:43;;;;;;;7.18;3.25;;;;;;;14.94;100.00;100557.38;701250;28;1256;-45
2022/05/12 00:03:05;;;;;;;7.20;3.03;;;;;;;14.90;100.00;100558.34;701805;28;1193;-44
2022/05/12 00:03:26;;;;;;;8.30;3.10;;;;;;;14.88;100.00;100557.50;701706;28;1296;-45
2022/05/12 00:03:46;;;;;;;6.63;2.83;;;;;;;14.92;100.00;100561.78;701088;28;1260;-45
2022/05/12 00:04:07;;;;;;;6.53;3.10;;;;;;;14.96;100.00;100560.81;701471;28;1229;-46
2022/05/12 00:04:29;;;;;;;6.35;3.20;;;;;;;14.85;100.00;100562.84;697998;28;4291;-45
2022/05/12 00:04:49;;;;;;;7.07;3.10;;;;;;;14.84;100.00;100563.75;697564;28;1233;-45
2022/05/12 00:05:10;;;;;;;6.50;3.07;;;;;;;14.79;100.00;100565.66;698789;28;1363;-45
2022/05/12 00:05:30;;;;;;;5.93;3.40;;;;;;;14.70;100.00;100571.13;700499;28;1233;-45
2022/05/12 00:05:51;;;;;;;5.82;3.58;;;;;;;14.70;100.00;100565.84;701739;28;1354;-45
2022/05/12 00:06:11;;;;;;;6.70;3.23;;;;;;;14.82;100.00;100563.78;700827;28;1384;-44
2022/05/12 00:06:32;;;;;;;6.90;3.13;;;;;;;14.83;100.00;100567.31;701378;28;1247;-45
2022/05/12 00:06:52;;;;;;;6.18;3.03;;;;;;;14.81;100.00;100566.47;701483;28;1299;-45
2022/05/12 00:07:12;;;;;;;6.37;2.93;;;;;;;14.79;100.00;100570.91;701407;28;1295;-45
2022/05/12 00:07:33;;;;;;;6.80;3.03;;;;;;;14.81;100.00;100574.34;700005;28;4442;-45
2022/05/12 00:07:54;;;;;;;7.67;3.43;;;;;;;14.79;100.00;100563.88;700762;28;1006;-45
2022/05/12 00:08:14;;;;;;;6.90;3.33;;;;;;;14.76;100.00;100566.59;701551;28;1353;-45
2022/05/12 00:08:35;;;;;;;6.70;3.20;;;;;;;14.75;100.00;100566.63;699263;28;1482;-44
2022/05/12 00:08:55;;;;;;;7.82;3.05;;;;;;;14.75;100.00;100564.84;700762;28;1372;-45
2022/05/12 00:09:16;;;;;;;8.33;3.40;;;;;;;14.77;100.00;100570.06;698779;28;1427;-44
2022/05/12 00:09:36;;;;;;;8.73;3.50;;;;;;;14.84;100.00;100570.78;697640;28;1277;-45
2022/05/12 00:09:57;;;;;;;7.57;3.25;;;;;;;14.84;100.00;100568.16;697415;28;1296;-44
2022/05/12 00:10:22;;;;;;;8.35;3.40;;;;;;;14.90;100.00;100566.25;699076;28;1221;-44
2022/05/12 00:10:43;;;;;;;5.97;3.40;;;;;;;14.94;100.00;100565.28;695155;28;4260;-45
2022/05/12 00:11:04;;;;;;;5.65;3.25;;;;;;;14.93;100.00;100562.69;697222;28;1264;-44
2022/05/12 00:11:25;;;;;;;7.20;3.42;;;;;;;14.93;100.00;100560.91;699722;28;868;-45
2022/05/12 00:11:45;;;;;;;7.63;3.45;;;;;;;14.93;100.00;100553.00;697698;28;911;-45
2022/05/12 00:12:06;;;;;;;6.10;3.13;;;;;;;14.88;100.00;100549.63;698575;28;1984;-45
2022/05/12 00:12:27;;;;;;;5.32;3.08;;;;;;;14.85;100.00;100560.22;700281;28;1639;-45
2022/05/12 00:12:47;;;;;;;6.45;3.10;;;;;;;14.89;100.00;100555.75;696800;28;1309;-44
2022/05/12 00:13:09;;;;;;;6.37;3.30;;;;;;;14.92;100.00;100561.78;696430;28;1285;-44
2022/05/12 00:13:30;;;;;;;6.97;3.15;;;;;;;14.90;100.00;100553.09;696074;28;5379;-45
2022/05/12 00:13:51;;;;;;;7.18;2.90;;;;;;;14.85;100.00;100552.31;695310;28;1417;-45
2022/05/12 00:14:12;;;;;;;7.60;3.40;;;;;;;14.89;100.00;100553.13;695907;28;1278;-45
2022/05/12 00:14:35;;;;;;;7.82;3.45;;;;;;;14.86;100.00;100550.59;698316;28;1304;-45
2022/05/12 00:14:55;;;;;;;6.45;3.30;;;;;;;14.81;100.00;100545.41;701214;28;1439;-45
2022/05/12 00:15:23;;;;;;;7.40;3.37;;;;;;;14.88;100.00;100546.97;701072;28;1702;-44
2022/05/12 00:15:43;;;;;;;6.65;3.30;;;;;;;14.89;100.00;100546.09;699692;28;957;-44
2022/05/12 00:16:04;;;;;;;7.60;3.25;;;;;;;14.91;100.00;100546.94;700356;28;1269;-44
2022/05/12 00:16:25;;;;;;;7.10;3.13;;;;;;;14.91;100.00;100549.56;701566;28;1232;-45
2022/05/12 00:16:45;;;;;;;7.40;3.20;;;;;;;14.88;100.00;100543.50;700836;27;4455;-45
2022/05/12 00:17:06;;;;;;;10.10;3.40;;;;;;;14.85;100.00;100546.22;701831;28;1212;-44
2022/05/12 00:17:28;;;;;;;9.63;3.20;;;;;;;14.81;100.00;100545.41;701597;28;1209;-44
2022/05/12 00:17:49;;;;;;;7.47;3.05;;;;;;;14.78;100.00;100542.84;701747;28;1145;-45
2022/05/12 00:18:09;;;;;;;6.68;3.20;;;;;;;14.79;100.00;100542.81;701186;28;1286;-45
2022/05/12 00:18:30;;;;;;;7.27;3.50;;;;;;;14.82;100.00;100544.50;701520;28;1599;-45
2022/05/12 00:18:50;;;;;;;8.33;3.47;;;;;;;14.84;100.00;100545.31;700826;28;1208;-45
2022/05/12 00:19:11;;;;;;;7.33;3.53;;;;;;;14.81;100.00;100546.28;701414;28;1253;-45
2022/05/12 00:19:32;;;;;;;6.55;3.40;;;;;;;14.82;100.00;100541.88;700123;28;4622;-44
2022/05/12 00:19:52;;;;;;;6.83;3.23;;;;;;;14.77;100.00;100547.28;699358;28;1375;-45
2022/05/12 00:20:14;;;;;;;7.25;3.20;;;;;;;14.79;100.00;100541.97;699578;28;1263;-46
2022/05/12 00:20:39;;;;;;;6.95;3.33;;;;;;;14.82;100.00;100545.38;701105;28;1375;-44
2022/05/12 00:20:59;;;;;;;7.57;3.70;;;;;;;14.80;100.00;100551.56;701036;28;1301;-46
2022/05/12 00:21:20;;;;;;;6.37;3.30;;;;;;;14.79;100.00;100550.72;701657;28;1328;-45
2022/05/12 00:21:40;;;;;;;8.50;3.20;;;;;;;14.81;100.00;100548.94;701536;28;1166;-46
2022/05/12 00:22:01;;;;;;;8.40;3.30;;;;;;;14.89;100.00;100553.13;700688;28;1220;-46
2022/05/12 00:22:21;;;;;;;6.53;3.50;;;;;;;14.84;100.00;100552.38;701650;28;1256;-45
2022/05/12 00:22:43;;;;;;;5.50;3.13;;;;;;;14.83;100.00;100554.16;700982;28;4299;-45
2022/05/12 00:23:07;;;;;;;6.00;2.90;;;;;;;14.89;100.00;100556.63;696791;28;1295;-45
2022/05/12 00:23:29;;;;;;;6.57;3.05;;;;;;;14.84;100.00;100555.84;697876;28;1256;-45
2022/05/12 00:23:58;;;;;;;6.15;3.33;;;;;;;14.87;100.00;100552.28;698740;28;1214;-45
2022/05/12 00:24:19;;;;;;;7.22;3.50;;;;;;;14.78;100.00;100551.59;698107;28;1747;-44
2022/05/12 00:24:39;;;;;;;7.25;3.25;;;;;;;14.76;100.00;100555.16;699128;28;1257;-44
2022/05/12 00:24:59;;;;;;;7.32;3.17;;;;;;;14.73;100.00;100555.25;700036;28;1160;-44
2022/05/12 00:25:23;;;;;;;6.33;3.30;;;;;;;14.68;100.00;100554.53;700627;28;1236;-44
2022/05/12 00:25:47;;;;;;;6.22;3.40;;;;;;;14.72;100.00;100553.53;699802;28;4768;-46
2022/05/12 00:26:08;;;;;;;8.07;3.50;;;;;;;14.70;100.00;100560.59;700158;28;1268;-44
2022/05/12 00:26:31;;;;;;;7.13;3.30;;;;;;;14.74;100.00;100557.00;701136;28;1264;-45
2022/05/12 00:26:52;;;;;;;8.02;3.70;;;;;;;14.71;100.00;100563.19;700722;28;1367;-45
2022/05/12 00:27:13;;;;;;;7.63;3.55;;;;;;;14.67;100.00;100560.69;697808;28;1214;-44
2022/05/12 00:27:33;;;;;;;8.03;3.33;;;;;;;14.68;100.00;100565.03;696115;28;1609;-44
2022/05/12 00:27:53;;;;;;;6.90;3.03;;;;;;;14.77;100.00;100552.53;697934;28;1353;-44
2022/05/12 00:28:16;;;;;;;7.33;3.23;;;;;;;14.76;100.00;100558.69;698278;28;1244;-45
2022/05/12 00:28:37;;;;;;;7.03;3.20;;;;;;;14.84;100.00;100558.47;697484;28;4514;-45
2022/05/12 00:28:59;;;;;;;7.93;3.50;;;;;;;14.89;100.00;100561.88;698502;28;1439;-45
2022/05/12 00:29:20;;;;;;;6.40;3.20;;;;;;;14.86;100.00;100567.22;700741;28;1245;-43
2022/05/12 00:29:40;;;;;;;5.83;3.10;;;;;;;14.83;100.00;100564.66;701764;28;1338;-44
2022/05/12 00:30:00;;;;;;;6.93;3.20;;;;;;;14.84;100.00;100561.13;699846;28;1429;-44
2022/05/12 00:30:21;;;;;;;6.47;3.40;;;;;;;14.75;100.00;100566.63;698581;28;1277;-46
2022/05/12 00:30:43;;;;;;;6.85;3.45;;;;;;;14.58;100.00;100562.59;696763;28;1178;-45
2022/05/12 00:31:04;;;;;;;6.80;3.65;;;;;;;14.67;100.00;100560.69;696136;28;1206;-44
2022/05/12 00:31:25;;;;;;;8.18;3.58;;;;;;;14.66;100.00;100566.81;695280;28;1312;-44
2022/05/12 00:31:48;;;;;;;8.80;3.25;;;;;;;14.62;100.00;100564.28;692915;28;5400;-46
2022/05/12 00:32:08;;;;;;;8.02;3.45;;;;;;;14.68;100.00;100565.03;694641;28;1979;-44
2022/05/12 00:32:29;;;;;;;9.60;3.53;;;;;;;14.64;100.00;100561.59;691156;28;1289;-45
2022/05/12 00:32:49;;;;;;;9.88;3.17;;;;;;;14.65;100.00;100563.34;692480;28;1196;-45
2022/05/12 00:33:10;;;;;;;7.30;3.13;;;;;;;14.69;100.00;100556.22;693055;28;1302;-44
2022/05/12 00:33:30;;;;;;;6.23;3.40;;;;;;;14.74;100.00;100557.00;695146;28;1269;-44
2022/05/12 00:33:51;;;;;;;6.13;3.28;;;;;;;14.67;100.00;100565.94;697929;28;1273;-45
2022/05/12 00:34:13;;;;;;;6.68;3.25;;;;;;;14.62;100.00;100566.00;698210;28;1332;-46
2022/05/12 00:34:36;;;;;;;6.75;3.15;;;;;;;14.68;100.00;100565.03;700072;27;4363;-45
2022/05/12 00:34:56;;;;;;;7.23;3.27;;;;;;;14.72;100.00;100561.44;700704;28;1240;-44
2022/05/12 00:35:18;;;;;;;7.33;3.20;;;;;;;14.70;100.00;100555.34;701174;28;1472;-45
2022/05/12 00:35:40;;;;;;;6.78;2.83;;;;;;;14.55;100.00;100562.66;700510;28;1232;-44
2022/05/12 00:36:00;;;;;;;5.65;3.03;;;;;;;14.54;100.00;100555.66;701017;28;1302;-45
2022/05/12 00:36:21;;;;;;;6.93;3.07;;;;;;;14.55;100.00;100557.41;701432;28;5053;-43
2022/05/12 00:36:43;;;;;;;6.57;3.05;;;;;;;14.50;100.00;100554.00;700566;28;1315;-45
2022/05/12 00:37:03;;;;;;;6.72;3.30;;;;;;;14.46;100.00;100560.22;701034;28;1210;-44
2022/05/12 00:37:24;;;;;;;7.93;3.10;;;;;;;14.45;100.00;100563.75;700781;28;1292;-44
2022/05/12 00:37:45;;;;;;;6.82;2.95;;;;;;;14.48;100.00;100561.03;700155;28;4503;-45
2022/05/12 00:38:05;;;;;;;7.05;3.22;;;;;;;14.56;100.00;100553.84;701008;28;1324;-44
2022/05/12 00:38:25;;;;;;;6.50;3.00;;;;;;;14.62;100.00;100548.50;701603;28;1249;-45
2022/05/12 00:38:46;;;;;;;5.23;3.00;;;;;;;14.59;100.00;100553.78;700007;28;1303;-45
2022/05/12 00:39:06;;;;;;;5.93;2.93;;;;;;;14.58;100.00;100554.69;700981;28;1256;-45
2022/05/12 00:39:27;;;;;;;8.70;3.20;;;;;;;14.55;100.00;100554.78;701477;27;1272;-45
2022/05/12 00:39:47;;;;;;;6.55;3.10;;;;;;;14.47;100.00;100552.31;700970;28;1290;-44
2022/05/12 00:40:08;;;;;;;7.17;2.80;;;;;;;14.47;100.00;100552.31;701056;28;1236;-44
2022/05/12 00:40:29;;;;;;;8.93;3.00;;;;;;;14.47;100.00;100554.94;700395;27;4401;-45
2022/05/12 00:40:50;;;;;;;9.23;3.38;;;;;;;14.49;100.00;100552.25;701003;28;1272;-45
2022/05/12 00:41:11;;;;;;;7.50;2.87;;;;;;;14.51;100.00;100555.75;700647;28;1307;-45
2022/05/12 00:41:32;;;;;;;6.57;2.97;;;;;;;14.50;100.00;100553.16;698374;28;1415;-44
2022/05/12 00:41:52;;;;;;;8.07;3.20;;;;;;;14.52;100.00;100551.31;697222;28;1395;-49
2022/05/12 00:42:13;;;;;;;8.45;3.40;;;;;;;14.50;100.00;100555.78;698445;28;1238;-45
2022/05/12 00:42:33;;;;;;;7.43;3.30;;;;;;;14.48;100.00;100561.94;698833;28;1284;-45
2022/05/12 00:43:06;;;;;;;7.70;3.20;;;;;;;14.44;100.00;100559.38;698115;28;1454;-44
2022/05/12 00:43:39;;;;;;;6.30;3.10;;;;;;;14.41;100.00;100559.47;694987;28;1341;-44
2022/05/12 00:44:04;;;;;;;7.28;3.38;;;;;;;14.46;100.00;100558.44;694142;28;4950;-46
2022/05/12 00:44:24;;;;;;;7.30;3.20;;;;;;;14.55;100.00;100567.91;692749;28;1255;-46
2022/05/12 00:44:44;;;;;;;7.20;3.10;;;;;;;14.55;100.00;100567.91;693548;28;1258;-44
2022/05/12 00:45:05;;;;;;;7.07;3.17;;;;;;;14.51;100.00;100565.38;695050;28;1427;-45
2022/05/12 00:45:29;;;;;;;6.72;3.20;;;;;;;14.49;100.00;100573.31;700633;28;1277;-45
2022/05/12 00:45:49;;;;;;;6.97;3.10;;;;;;;14.46;100.00;100573.38;700792;28;1244;-44
2022/05/12 00:46:21;;;;;;;6.77;3.30;;;;;;;14.41;100.00;100576.13;701367;28;1312;-45
2022/05/12 00:46:44;;;;;;;7.18;3.28;;;;;;;14.45;100.00;100571.63;699351;28;4427;-45
2022/05/12 00:47:04;;;;;;;6.97;3.10;;;;;;;14.43;100.00;100574.31;699346;28;1273;-43
2022/05/12 00:47:25;;;;;;;5.85;3.13;;;;;;;14.43;100.00;100576.09;699306;28;1332;-45
2022/05/12 00:47:45;;;;;;;6.57;3.17;;;;;;;14.44;100.00;100575.16;700953;28;1229;-46
2022/05/12 00:48:06;;;;;;;8.00;3.10;;;;;;;14.45;100.00;100577.78;700449;28;1273;-43
2022/05/12 00:48:26;;;;;;;8.65;3.40;;;;;;;14.50;100.00;100574.19;699741;28;1339;-44
2022/05/12 00:48:48;;;;;;;7.60;3.33;;;;;;;14.54;100.00;100576.69;701524;28;1216;-44
2022/05/12 00:49:15;;;;;;;8.47;3.33;;;;;;;14.52;100.00;100573.22;700948;28;1303;-44
2022/05/12 00:49:40;;;;;;;7.82;3.13;;;;;;;14.57;100.00;100576.63;700434;27;4529;-44
2022/05/12 00:50:00;;;;;;;5.70;3.03;;;;;;;14.54;100.00;100570.56;699496;28;1071;-43
2022/05/12 00:50:26;;;;;;;6.03;2.90;;;;;;;14.61;100.00;100577.44;700929;28;1308;-44
2022/05/12 00:50:47;;;;;;;6.80;3.00;;;;;;;14.60;100.00;100576.56;699293;28;1257;-44
2022/05/12 00:51:10;;;;;;;7.17;2.90;;;;;;;14.58;100.00;100581.00;700815;28;1114;-43
2022/05/12 00:51:36;;;;;;;6.25;2.90;;;;;;;14.60;100.00;100579.19;699926;28;1379;-43
2022/05/12 00:52:06;;;;;;;6.15;2.90;;;;;;;14.66;100.00;100579.97;699001;28;1467;-44
2022/05/12 00:52:29;;;;;;;5.78;2.90;;;;;;;14.55;100.00;100583.69;696145;28;2105;-43
2022/05/12 00:52:50;;;;;;;7.68;3.30;;;;;;;14.47;100.00;100580.38;697038;28;4633;-44
2022/05/12 00:53:13;;;;;;;7.30;3.40;;;;;;;14.44;100.00;100581.31;697625;28;1277;-43
2022/05/12 00:53:35;;;;;;;9.30;3.30;;;;;;;14.43;100.00;100581.34;699860;28;1050;-44
2022/05/12 00:53:58;;;;;;;7.50;3.20;;;;;;;14.38;100.00;100583.19;700725;28;1414;-45
2022/05/12 00:54:33;;;;;;;5.35;3.10;;;;;;;14.37;100.00;100584.97;700062;28;1307;-45
2022/05/12 00:55:05;;;;;;;7.72;3.50;;;;;;;14.54;100.00;100576.69;701064;28;1201;-43
2022/05/12 00:55:32;;;;;;;6.40;3.20;;;;;;;14.61;100.00;100583.56;701008;28;1094;-45
2022/05/12 00:55:53;;;;;;;7.70;3.08;;;;;;;14.61;100.00;100586.19;699522;28;4907;-44
2022/05/12 00:56:16;;;;;;;7.03;3.00;;;;;;;14.66;100.00;100579.97;701566;28;982;-43
2022/05/12 00:56:36;;;;;;;6.40;3.13;;;;;;;14.64;100.00;100578.25;700707;28;1003;-43
2022/05/12 00:56:58;;;;;;;7.57;3.20;;;;;;;14.61;100.00;100583.56;700941;28;1118;-44
2022/05/12 00:57:26;;;;;;;7.03;3.20;;;;;;;14.56;100.00;100580.16;701011;28;1173;-44
2022/05/12 00:57:53;;;;;;;7.07;3.13;;;;;;;14.51;100.00;100587.31;700187;28;1034;-45
2022/05/12 00:58:17;;;;;;;9.02;3.20;;;;;;;14.53;100.00;100582.00;700861;28;1217;-46
2022/05/12 00:58:38;;;;;;;6.38;2.97;;;;;;;14.46;100.00;100583.91;699649;27;4314;-44
2022/05/12 00:59:02;;;;;;;7.40;3.10;;;;;;;14.45;100.00;100585.69;701630;28;1051;-44
2022/05/12 00:59:28;;;;;;;6.07;2.90;;;;;;;14.50;100.00;100590.81;701226;28;1158;-44
2022/05/12 00:59:48;;;;;;;6.80;3.15;;;;;;;14.48;100.00;100593.50;699957;28;1184;-46
2022/05/12 01:00:12;;;;;;;5.75;3.00;;;;;;;14.49;100.00;100589.09;701448;28;1141;-46
2022/05/12 01:00:33;;;;;;;6.43;3.40;;;;;;;14.62;100.00;100592.28;701205;28;1255;-44
2022/05/12 01:00:54;;;;;;;6.57;3.35;;;;;;;14.65;100.00;100589.66;700861;28;1403;-44
2022/05/12 01:01:15;;;;;;;8.18;3.13;;;;;;;14.72;100.00;100591.22;701729;28;1102;-45
2022/05/12 01:01:37;;;;;;;7.13;3.10;;;;;;;14.64;100.00;100593.19;700937;28;4491;-45
2022/05/12 01:02:00;;;;;;;7.57;3.42;;;;;;;14.57;100.00;100595.03;700264;28;1157;-44
2022/05/12 01:02:20;;;;;;;7.13;3.30;;;;;;;14.62;100.00;100597.56;701260;28;1169;-45
2022/05/12 01:02:44;;;;;;;7.33;3.40;;;;;;;14.59;100.00;100595.88;701003;28;1161;-46
2022/05/12 01:03:13;;;;;;;7.13;3.28;;;;;;;14.59;100.00;100601.16;701215;28;1182;-46
2022/05/12 01:03:34;;;;;;;6.80;3.00;;;;;;;14.59;100.00;100593.25;701462;28;1161;-44
2022/05/12 01:03:58;;;;;;;6.55;3.45;;;;;;;14.66;100.00;100598.41;700808;28;995;-46
2022/05/12 01:04:20;;;;;;;6.47;3.30;;;;;;;14.67;100.00;100605.41;701364;28;974;-44
2022/05/12 01:04:42;;;;;;;7.25;3.40;;;;;;;14.58;100.00;100604.66;700479;27;4346;-46
2022/05/12 01:05:03;;;;;;;6.45;3.60;;;;;;;14.63;100.00;100602.84;700142;28;2050;-44
2022/05/12 01:05:26;;;;;;;7.20;3.47;;;;;;;14.67;100.00;100602.78;701196;28;1201;-43
2022/05/12 01:05:47;;;;;;;6.63;3.60;;;;;;;14.62;100.00;100601.09;698157;28;1943;-46
2022/05/12 01:06:09;;;;;;;6.68;3.20;;;;;;;14.61;100.00;100599.34;696831;28;1248;-44
2022/05/12 01:06:30;;;;;;;5.63;3.10;;;;;;;14.62;100.00;100606.38;696659;28;1158;-44
2022/05/12 01:06:52;;;;;;;5.40;2.90;;;;;;;14.61;100.00;100601.09;698369;28;1134;-44
2022/05/12 01:07:12;;;;;;;6.10;3.20;;;;;;;14.59;100.00;100606.41;701004;28;1305;-45
2022/05/12 01:07:32;;;;;;;5.72;3.30;;;;;;;14.57;100.00;100602.94;696089;28;4297;-45
2022/05/12 01:07:55;;;;;;;5.63;3.20;;;;;;;14.69;100.00;100600.94;698227;28;1182;-45
2022/05/12 01:08:18;;;;;;;6.78;3.20;;;;;;;14.69;100.00;100611.47;698183;28;1158;-46
2022/05/12 01:08:39;;;;;;;6.25;3.10;;;;;;;14.64;100.00;100612.44;698558;28;1281;-45
2022/05/12 01:09:00;;;;;;;6.50;3.38;;;;;;;14.60;100.00;100612.53;698439;28;1070;-46
2022/05/12 01:09:20;;;;;;;7.90;3.30;;;;;;;14.51;100.00;100610.97;698197;28;1173;-44
2022/05/12 01:09:41;;;;;;;8.10;3.60;;;;;;;14.55;100.00;100610.00;701678;28;1169;-44
2022/05/12 01:10:04;;;;;;;7.45;3.70;;;;;;;14.55;100.00;100609.13;700198;28;1076;-44
2022/05/12 01:10:26;;;;;;;8.57;4.20;;;;;;;14.52;100.00;100610.06;702261;28;1173;-46
2022/05/12 01:10:52;;;;;;;8.52;3.70;;;;;;;14.47;100.00;100612.78;699366;28;4339;-44
2022/05/12 01:11:15;;;;;;;8.00;3.55;;;;;;;14.43;100.00;100613.75;701855;28;1259;-44
2022/05/12 01:11:35;;;;;;;6.95;3.53;;;;;;;14.42;100.00;100611.16;699200;28;1155;-45
2022/05/12 01:11:56;;;;;;;10.30;3.97;;;;;;;14.44;100.00;100612.88;696756;28;1130;-47
2022/05/12 01:12:17;;;;;;;8.13;3.83;;;;;;;14.45;100.00;100618.97;694105;28;1918;-45
2022/05/12 01:12:39;;;;;;;6.77;3.40;;;;;;;14.46;100.00;100620.72;697416;28;1174;-45
2022/05/12 01:13:00;;;;;;;7.60;3.85;;;;;;;14.42;100.00;100612.03;696121;28;1144;-44
2022/05/12 01:13:21;;;;;;;6.80;3.50;;;;;;;14.51;100.00;100615.34;693502;28;1191;-44
2022/05/12 01:13:47;;;;;;;7.30;3.63;;;;;;;14.51;100.00;100617.97;696130;28;4436;-44
2022/05/12 01:14:08;;;;;;;6.82;3.50;;;;;;;14.53;100.00;100616.19;697299;28;1500;-43
2022/05/12 01:14:28;;;;;;;6.47;3.60;;;;;;;14.58;100.00;100609.03;698387;28;1158;-43
2022/05/12 01:14:49;;;;;;;7.70;3.60;;;;;;;14.54;100.00;100613.53;699968;28;1257;-44
2022/05/12 01:15:10;;;;;;;7.43;3.67;;;;;;;14.54;100.00;100605.63;699884;28;1198;-43
2022/05/12 01:15:31;;;;;;;7.50;3.60;;;;;;;14.49;100.00;100604.88;698881;28;1240;-47
2022/05/12 01:15:55;;;;;;;8.27;3.90;;;;;;;14.49;100.00;100604.88;699524;28;1374;-44
2022/05/12 01:16:56;;;;;;;7.90;4.05;;;;;;;14.49;100.00;100615.38;698869;28;1268;-44
2022/05/12 01:17:17;;;;;;;6.20;3.67;;;;;;;14.51;100.00;100610.97;692363;28;4920;-43
2022/05/12 01:17:37;;;;;;;7.22;3.85;;;;;;;14.51;100.00;100610.97;694181;28;1441;-43
2022/05/12 01:18:04;;;;;;;7.67;3.70;;;;;;;14.54;100.00;100616.16;694530;28;1110;-45
2022/05/12 01:18:27;;;;;;;7.63;3.47;;;;;;;14.50;100.00;100613.63;692569;28;1230;-44
2022/05/12 01:18:48;;;;;;;7.43;3.78;;;;;;;14.48;100.00;100616.28;693460;28;1229;-43
2022/05/12 01:19:12;;;;;;;8.07;3.93;;;;;;;14.50;100.00;100616.28;693406;28;1166;-45
2022/05/12 01:19:39;;;;;;;8.93;4.22;;;;;;;14.60;100.00;100613.38;693813;28;4478;-44
2022/05/12 01:20:00;;;;;;;7.88;3.95;;;;;;;14.61;100.00;100616.91;696759;28;1328;-44
2022/05/12 01:20:20;;;;;;;7.33;3.80;;;;;;;14.60;100.00;100613.38;699021;28;1522;-44
2022/05/12 01:20:41;;;;;;;8.23;4.57;;;;;;;14.60;100.00;100618.63;697702;28;1296;-44
2022/05/12 01:21:01;;;;;;;8.97;4.40;;;;;;;14.60;100.00;100615.16;698607;28;1138;-43
2022/05/12 01:21:21;;;;;;;9.25;4.05;;;;;;;14.64;100.00;100622.97;698848;28;3660;-43
2022/05/12 01:21:43;;;;;;;7.23;4.10;;;;;;;14.59;100.00;100622.19;699049;28;1157;-44
2022/05/12 01:22:06;;;;;;;7.38;3.90;;;;;;;14.56;100.00;100622.25;702063;28;1174;-45
2022/05/12 01:22:53;;;;;;;6.88;3.90;;;;;;;14.52;100.00;100623.19;701289;27;4440;-43
2022/05/12 01:23:19;;;;;;;6.75;3.78;;;;;;;14.60;100.00;100621.28;700212;28;932;-45
2022/05/12 01:23:40;;;;;;;7.00;3.90;;;;;;;14.57;100.00;100626.59;698902;28;1198;-44
2022/05/12 01:24:00;;;;;;;6.80;3.88;;;;;;;14.53;100.00;100632.84;700652;28;1229;-44
2022/05/12 01:24:24;;;;;;;8.07;4.10;;;;;;;14.49;100.00;100625.91;700744;28;1158;-45
2022/05/12 01:24:44;;;;;;;7.85;3.78;;;;;;;14.40;100.00;100628.72;699836;28;1182;-44
2022/05/12 01:25:16;;;;;;;7.23;4.17;;;;;;;14.40;100.00;100633.97;701208;28;1185;-45
2022/05/12 01:25:36;;;;;;;7.20;4.50;;;;;;;14.39;100.00;100629.66;700038;27;4282;-44
2022/05/12 01:26:00;;;;;;;6.63;4.40;;;;;;;14.48;100.00;100621.53;701421;28;1091;-47
2022/05/12 01:26:20;;;;;;;8.35;4.70;;;;;;;14.44;100.00;100628.66;700582;28;1204;-43
2022/05/12 01:26:41;;;;;;;7.10;4.13;;;;;;;14.42;100.00;100634.84;701313;28;1238;-43
2022/05/12 01:27:22;;;;;;;8.98;4.20;;;;;;;14.39;100.00;100624.38;701630;28;1177;-43
2022/05/12 01:27:42;;;;;;;7.28;4.00;;;;;;;14.40;100.00;100626.09;700398;28;1205;-44
2022/05/12 01:28:04;;;;;;;6.90;4.13;;;;;;;14.37;100.00;100627.06;700765;28;1149;-44
2022/05/12 01:28:25;;;;;;;8.27;4.18;;;;;;;14.37;100.00;100626.16;701148;28;1157;-45
2022/05/12 01:28:46;;;;;;;7.70;3.95;;;;;;;14.37;100.00;100627.06;700066;27;4398;-44
2022/05/12 01:29:07;;;;;;;7.72;4.13;;;;;;;14.34;100.00;100621.84;702871;28;1359;-43
2022/05/12 01:29:28;;;;;;;6.68;4.30;;;;;;;14.30;100.00;100622.78;700221;28;1741;-44
2022/05/12 01:29:57;;;;;;;7.63;4.40;;;;;;;14.28;100.00;100624.59;700624;28;1181;-43
2022/05/12 01:30:21;;;;;;;8.45;3.88;;;;;;;14.29;100.00;100624.56;702239;28;1168;-44
2022/05/12 01:30:41;;;;;;;8.77;4.10;;;;;;;14.43;100.00;100626.06;701003;28;927;-44
2022/05/12 01:31:03;;;;;;;8.05;3.90;;;;;;;14.40;100.00;100621.72;702543;28;1122;-44
2022/05/12 01:31:24;;;;;;;8.63;4.10;;;;;;;14.40;100.00;100621.72;702276;28;1157;-43
2022/05/12 01:31:44;;;;;;;8.23;4.20;;;;;;;14.38;100.00;100627.91;701381;27;4409;-44
2022/05/12 01:32:05;;;;;;;8.30;4.10;;;;;;;14.39;100.00;100627.00;701965;28;1926;-43
2022/05/12 01:32:28;;;;;;;8.90;4.30;;;;;;;14.39;100.00;100625.25;701784;28;1113;-44
2022/05/12 01:32:49;;;;;;;8.70;4.38;;;;;;;14.38;100.00;100626.13;701197;28;1054;-46
2022/05/12 01:33:09;;;;;;;7.75;4.30;;;;;;;14.35;100.00;100622.72;701927;28;1244;-44
2022/05/12 01:33:31;;;;;;;8.97;4.30;;;;;;;14.41;100.00;100620.84;699144;28;1233;-43
2022/05/12 01:33:51;;;;;;;10.27;4.40;;;;;;;14.43;100.00;100626.06;699446;28;1118;-43
2022/05/12 01:34:13;;;;;;;8.73;4.43;;;;;;;14.40;100.00;100626.09;695626;28;1393;-45
2022/05/12 01:34:33;;;;;;;7.40;4.20;;;;;;;14.36;100.00;100629.69;694013;28;4749;-44
2022/05/12 01:34:55;;;;;;;7.83;4.43;;;;;;;14.45;100.00;100632.13;695302;28;1297;-44
2022/05/12 01:35:19;;;;;;;7.80;4.60;;;;;;;14.46;100.00;100625.97;694006;28;1173;-43
2022/05/12 01:35:40;;;;;;;8.85;4.68;;;;;;;14.41;100.00;100628.72;697558;28;1146;-43
2022/05/12 01:36:01;;;;;;;7.93;4.30;;;;;;;14.36;100.00;100632.31;698259;28;1249;-44
2022/05/12 01:36:22;;;;;;;6.97;4.28;;;;;;;14.33;100.00;100627.13;695512;28;4790;-43
2022/05/12 01:36:42;;;;;;;9.00;4.40;;;;;;;14.34;100.00;100634.13;695624;28;1154;-45
2022/05/12 01:37:03;;;;;;;7.57;4.15;;;;;;;14.41;100.00;100622.56;694661;28;1292;-44
2022/05/12 01:37:24;;;;;;;7.23;4.20;;;;;;;14.43;100.00;100631.31;693972;28;1258;-44
2022/05/12 01:37:45;;;;;;;7.60;4.50;;;;;;;14.39;100.00;100629.66;698101;28;4501;-44
2022/05/12 01:38:05;;;;;;;7.75;4.50;;;;;;;14.33;100.00;100627.13;698931;28;907;-44
2022/05/12 01:38:26;;;;;;;6.83;4.13;;;;;;;14.39;100.00;100637.53;699384;28;950;-44
2022/05/12 01:38:47;;;;;;;7.90;4.80;;;;;;;14.45;100.00;100637.38;699094;28;982;-45
2022/05/12 01:39:08;;;;;;;8.75;4.55;;;;;;;14.39;100.00;100627.88;698127;28;1022;-44
2022/05/12 01:39:29;;;;;;;7.22;4.40;;;;;;;14.38;100.00;100633.16;698557;28;939;-43
2022/05/12 01:39:50;;;;;;;7.97;4.43;;;;;;;14.38;100.00;100630.53;698458;28;969;-44
2022/05/12 01:40:14;;;;;;;7.43;4.25;;;;;;;14.36;100.00;100625.31;698895;28;780;-47
2022/05/12 01:40:34;;;;;;;8.43;4.60;;;;;;;14.32;100.00;100628.91;698500;28;4503;-45
2022/05/12 01:40:55;;;;;;;7.77;4.40;;;;;;;14.29;100.00;100628.97;700446;28;1014;-43
2022/05/12 01:41:16;;;;;;;7.78;4.47;;;;;;;14.24;100.00;100628.19;700894;28;1114;-43
2022/05/12 01:41:37;;;;;;;8.50;4.57;;;;;;;14.23;100.00;100627.34;698698;28;1136;-44
2022/05/12 01:41:58;;;;;;;7.80;4.20;;;;;;;14.24;100.00;100631.69;698543;28;1041;-44
2022/05/12 01:42:19;;;;;;;7.80;4.65;;;;;;;14.24;100.00;100631.69;699435;28;1137;-44
2022/05/12 01:42:39;;;;;;;6.88;4.80;;;;;;;14.41;100.00;100633.09;699659;28;1070;-43
2022/05/12 01:43:00;;;;;;;7.57;4.72;;;;;;;14.43;100.00;100626.06;699572;28;1288;-43
2022/05/12 01:43:21;;;;;;;8.85;4.63;;;;;;;14.43;100.00;100633.94;698764;28;1051;-45
2022/05/12 01:43:41;;;;;;;8.73;4.70;;;;;;;14.40;100.00;100628.72;700719;28;4287;-43
2022/05/12 01:44:04;;;;;;;7.78;4.45;;;;;;;14.35;100.00;100630.59;701626;28;1371;-44
2022/05/12 01:44:24;;;;;;;6.97;4.40;;;;;;;14.37;100.00;100636.69;701046;28;1362;-43